Zhetygen Airport

Jump to: basic info | weather | comments

Related pages: nearby airports | nearby navaids

Basic information (top)

Location: lon 43.733101, lat 77.119400, elev 1,638 ft / 499 m msl
Status: small_airport

Weather (top)

Current conditions for Almaty Airport 23nm (43km) S (rec'd 2014/12/22 15:00Z):

UAAA 221500Z 15002MPS 0200 R23R/0750V1100U R23L/0700N FZFG FU BKN200 M06/M08 Q1019 R88/91//60 NOSIG

Airport forecast for Almaty Airport 23nm (43km) S (rec'd 2014/12/22 12:18Z):

TAF TAF UAAA 221100Z 2212/2312 16004MPS 0800 BR FU SCT030 BKN100 TX02/2308Z TNM08/2301Z 
      TEMPO 2212/2215 0300 
      TEMPO 2215/2306 0200 FZFG VV001 
      TEMPO 2306/2312 04005MPS 1500

Latest comments (top)

No comments yet for Zhetygen Airport

More... (top)

See also NOTAMs and nearby airports and navaids, or visit the Zhetygen Airport page at the main OurAirports website..